EXTREME FIRE HAZARD. DIAL *5555 TO REPORT WILDFIRES.

Subpeak Weather

  • Time Avg. Air Temp Dew Point Avg. Rel Humidity Avg. 2 Min Wind Speed Max Gust Velocity MGV Time MGV Direction Avg. Spot Wind Velocity
    2021-07-28 10:15:0015° C16° C100%6 km/h12 km/h10:12:00S7 km/h
    09:15:0014° C14° C100%7 km/h9 km/h09:12:00SE8 km/h
    08:15:0013° C13° C100%10 km/h14 km/h08:11:00SE11 km/h
    07:15:0013° C13° C100%19 km/h21 km/h07:11:00S19 km/h
    06:15:0013° C13° C100%18 km/h19 km/h06:14:00S17 km/h
    05:15:0013° C13° C100%20 km/h23 km/h05:12:00S21 km/h
    04:15:0014° C14° C100%3 km/h4 km/h04:11:00NW3 km/h
    03:15:0014° C14° C100%5 km/h6 km/h03:11:00W5 km/h
    02:15:0014° C14° C100%9 km/h11 km/h02:13:00W9 km/h
    01:15:0014° C14° C100%5 km/h8 km/h01:11:00W6 km/h
    00:15:0014° C14° C100%8 km/h9 km/h00:13:00W8 km/h
    23:15:0013° C14° C100%7 km/h8 km/h23:15:00NW7 km/h
    22:15:0014° C14° C100%8 km/h10 km/h22:13:00NW8 km/h
    21:15:0015° C14° C100%13 km/h17 km/h21:13:00SW14 km/h
    20:15:0014° C14° C100%13 km/h15 km/h20:15:00SW12 km/h
    19:15:0014° C14° C100%9 km/h11 km/h19:11:00NW9 km/h
    18:15:0015° C15° C100%7 km/h10 km/h18:13:00NW7 km/h
    17:15:0016° C16° C100%8 km/h13 km/h17:13:00W7 km/h
    16:15:0016° C16° C100%10 km/h13 km/h16:12:00SW10 km/h
    15:15:0016° C16° C100%12 km/h16 km/h15:14:00W9 km/h
    14:15:0016° C16° C100%5 km/h15 km/h14:12:00W8 km/h
    13:15:0015° C16° C100%5 km/h10 km/h13:11:00W6 km/h
    12:15:0015° C15° C100%6 km/h9 km/h12:13:00W5 km/h
    11:15:0016° C16° C100%3 km/h6 km/h11:12:00NW3 km/h
  • Time Avg. Air Temp Dew Point Avg. Rel Humidity Avg. 2 Min Wind Speed Max Gust Velocity MGV Time MGV Direction Avg. Spot Wind Velocity
    2021-07-28 10:15:0015° C16° C100%6 km/h12 km/h10:12:00S7 km/h
    10:10:0015° C15° C100%9 km/h13 km/h10:09:00SE8 km/h
    10:05:0015° C15° C100%8 km/h10 km/h10:05:00SE7 km/h
    10:00:0015° C15° C100%8 km/h11 km/h10:00:00S8 km/h
    09:55:0015° C15° C100%8 km/h12 km/h09:54:00S9 km/h
    09:50:0015° C15° C100%10 km/h12 km/h09:50:00S9 km/h
    09:45:0015° C15° C100%7 km/h11 km/h09:41:00SE8 km/h
    09:40:0015° C14° C100%9 km/h11 km/h09:37:00SE8 km/h
    09:35:0015° C15° C100%9 km/h11 km/h09:31:00S7 km/h
    09:30:0015° C15° C100%6 km/h10 km/h09:30:00SE7 km/h
    09:25:0014° C15° C100%5 km/h9 km/h09:22:00SE6 km/h
    09:20:0014° C14° C100%8 km/h10 km/h09:17:00SE8 km/h
    09:15:0014° C14° C100%7 km/h9 km/h09:12:00SE8 km/h

Explore More

Get Revelstoke news, offers, and events via email.